Time;durP1;ratioP1;P1;durP2;ratioP2;P2;SDS_P1;SDS_P2;PMS_P1;PMS_P2;Temp;Humidity;BMP_temperature;BMP_pressure;BME280_temperature;BME280_humidity;BME280_pressure;Samples;Min_cycle;Max_cycle;Signal;HPM_P1;HPM_P2
2021/07/22 00:00:59;;;;;;;4.90;4.40;;;;;;;22.24;100.00;97868.69;4944470;28;20314;-65
2021/07/22 00:03:26;;;;;;;6.10;4.03;;;;;;;22.50;100.00;97923.28;4945666;29;20208;-65
2021/07/22 00:05:52;;;;;;;4.57;4.17;;;;;;;22.65;100.00;97941.72;4947443;29;20216;-69
2021/07/22 00:08:19;;;;;;;5.47;4.97;;;;;;;21.47;100.00;97748.38;4947839;29;20299;-70
2021/07/22 00:10:45;;;;;;;5.30;4.80;;;;;;;22.60;100.00;97939.03;4940939;29;20267;-68
2021/07/22 00:13:12;;;;;;;5.47;4.13;;;;;;;22.52;100.00;97927.66;4945525;29;20263;-65
2021/07/22 00:15:39;;;;;;;5.03;4.63;;;;;;;22.35;100.00;97902.31;4947088;29;20237;-68
2021/07/22 00:18:05;;;;;;;4.57;4.17;;;;;;;21.77;100.00;97806.53;4931812;29;20636;-69
2021/07/22 00:20:32;;;;;;;4.70;4.30;;;;;;;22.61;100.00;97939.88;4947628;28;20307;-65
2021/07/22 00:22:58;;;;;;;4.67;4.27;;;;;;;22.61;100.00;97945.00;4947395;29;20232;-68
2021/07/22 00:25:25;;;;;;;5.13;4.23;;;;;;;22.29;100.00;97887.59;4948576;29;20242;-68
2021/07/22 00:27:52;;;;;;;4.60;4.10;;;;;;;22.56;100.00;97919.22;4950647;28;20300;-69
2021/07/22 00:30:18;;;;;;;5.07;4.67;;;;;;;22.26;100.00;97872.13;4947251;28;20248;-68
2021/07/22 00:32:45;;;;;;;4.67;4.27;;;;;;;21.84;100.00;97795.69;4913790;29;20737;-66
2021/07/22 00:35:11;;;;;;;4.70;4.30;;;;;;;22.55;100.00;97919.19;4952126;29;20228;-69
2021/07/22 00:37:38;;;;;;;4.40;4.00;;;;;;;22.53;100.00;97916.56;4952319;28;20239;-69
2021/07/22 00:43:01;;;;;;;4.57;4.17;;;;;;;22.67;100.00;97937.50;5021743;28;20236;-64
2021/07/22 00:45:29;;;;;;;4.60;4.20;;;;;;;22.22;100.00;97860.06;5011147;28;20625;-64
2021/07/22 00:47:56;;;;;;;5.10;4.60;;;;;;;22.70;100.00;97942.72;5029231;28;20206;-65
2021/07/22 00:50:22;;;;;;;4.30;4.00;;;;;;;22.70;100.00;97935.91;5028646;28;20233;-64
2021/07/22 00:52:49;;;;;;;4.60;4.20;;;;;;;22.71;100.00;97941.91;5029198;28;20642;-64
2021/07/22 00:55:24;;;;;;;4.70;4.30;;;;;;;22.71;100.00;97937.66;5029454;28;20658;-65
2021/07/22 00:57:51;;;;;;;4.80;4.30;;;;;;;22.71;100.00;97937.66;5012174;28;20205;-64
2021/07/22 01:00:18;;;;;;;4.77;4.27;;;;;;;22.65;100.00;97922.09;5026053;28;20619;-65
2021/07/22 01:02:44;;;;;;;4.60;4.20;;;;;;;22.72;100.00;97936.84;5009742;28;20320;-61
2021/07/22 01:05:11;;;;;;;4.67;4.27;;;;;;;22.72;100.00;97936.84;5026592;28;20209;-64
2021/07/22 01:07:38;;;;;;;4.50;4.10;;;;;;;22.55;100.00;97899.56;5026592;28;20213;-65
2021/07/22 01:10:05;;;;;;;5.03;4.40;;;;;;;22.74;100.00;97934.34;5029134;28;20229;-64
2021/07/22 01:12:32;;;;;;;4.67;4.27;;;;;;;22.73;100.00;97936.00;5022263;28;20221;-64
2021/07/22 01:14:59;;;;;;;4.10;3.77;;;;;;;22.74;100.00;97937.75;5029366;28;20221;-65
2021/07/22 01:17:31;;;;;;;5.20;4.53;;;;;;;22.74;100.00;97930.06;5029031;28;20296;-64
2021/07/22 01:20:01;;;;;;;4.70;4.30;;;;;;;22.50;100.00;97901.09;5008625;28;20251;-64
2021/07/22 01:22:29;;;;;;;4.37;3.97;;;;;;;22.75;100.00;97929.25;5027932;28;20248;-64
2021/07/22 01:24:56;;;;;;;5.53;4.20;;;;;;;22.61;100.00;97902.31;5027345;28;20229;-64
2021/07/22 01:27:23;;;;;;;4.13;3.73;;;;;;;22.75;100.00;97929.25;5028771;28;20289;-61
2021/07/22 01:29:50;;;;;;;4.53;4.13;;;;;;;22.76;100.00;97938.66;5028518;28;20209;-64
2021/07/22 01:32:17;;;;;;;5.13;4.63;;;;;;;22.75;100.00;97926.69;5028686;28;20308;-65
2021/07/22 01:34:44;;;;;;;5.00;4.50;;;;;;;22.76;100.00;97922.41;5029038;28;20237;-65
2021/07/22 01:37:10;;;;;;;3.90;3.60;;;;;;;22.77;100.00;97925.03;5028411;28;20293;-64
2021/07/22 01:39:38;;;;;;;5.03;4.53;;;;;;;22.08;100.00;97805.00;5025626;28;20439;-64
2021/07/22 01:42:05;;;;;;;4.77;4.33;;;;;;;22.62;100.00;97898.94;5028092;28;20341;-65
2021/07/22 01:44:31;;;;;;;4.43;4.03;;;;;;;22.77;100.00;97929.31;5027954;28;20689;-64
2021/07/22 01:46:58;;;;;;;4.90;4.30;;;;;;;22.77;100.00;97927.59;5028330;28;20746;-64
2021/07/22 01:49:25;;;;;;;4.60;4.20;;;;;;;22.73;100.00;97919.75;5027664;28;20604;-65
2021/07/22 01:51:51;;;;;;;4.37;4.00;;;;;;;22.10;100.00;97813.59;5028679;28;20332;-64
2021/07/22 01:54:18;;;;;;;5.03;4.57;;;;;;;22.78;100.00;97923.34;5028214;28;20252;-64
2021/07/22 01:56:44;;;;;;;4.30;3.90;;;;;;;22.78;100.00;97925.91;5028515;28;20248;-64
2021/07/22 01:59:11;;;;;;;4.87;4.37;;;;;;;22.78;100.00;97911.41;5027836;28;20786;-64
2021/07/22 02:01:38;;;;;;;4.43;4.03;;;;;;;22.78;100.00;97918.22;5025824;28;20315;-64
2021/07/22 02:04:05;;;;;;;4.23;3.70;;;;;;;22.78;100.00;97915.66;5027756;28;20212;-62
2021/07/22 02:06:31;;;;;;;4.50;4.10;;;;;;;22.79;100.00;97919.94;5027805;28;20208;-64
2021/07/22 02:08:58;;;;;;;4.20;3.90;;;;;;;22.77;100.00;97912.22;5026608;28;20255;-64
2021/07/22 02:11:24;;;;;;;4.10;3.80;;;;;;;22.77;100.00;97908.78;5027522;28;20308;-64
2021/07/22 02:13:51;;;;;;;4.30;3.90;;;;;;;22.76;100.00;97909.59;5026569;28;20702;-64
2021/07/22 02:16:17;;;;;;;4.77;4.23;;;;;;;22.57;100.00;97885.13;5028266;28;20205;-64
2021/07/22 02:18:44;;;;;;;4.37;3.97;;;;;;;22.72;100.00;97911.22;5026314;28;20259;-65
2021/07/22 02:21:11;;;;;;;5.20;4.20;;;;;;;22.72;100.00;97912.91;5027484;28;20661;-65
2021/07/22 02:23:37;;;;;;;4.63;4.20;;;;;;;22.70;100.00;97915.41;5027454;28;20252;-64
2021/07/22 02:26:07;;;;;;;4.90;4.40;;;;;;;21.84;100.00;97767.53;5027945;28;20635;-63
2021/07/22 02:28:34;;;;;;;4.70;4.30;;;;;;;22.68;100.00;97913.66;5027291;28;20229;-64
2021/07/22 02:31:01;;;;;;;4.53;4.13;;;;;;;22.42;100.00;97871.81;5027397;28;20253;-64
2021/07/22 02:33:28;;;;;;;4.47;4.07;;;;;;;21.69;100.00;97749.97;5023860;28;20233;-64
2021/07/22 02:35:57;;;;;;;4.40;4.00;;;;;;;21.57;100.00;97732.53;5027199;28;20292;-64
2021/07/22 02:38:24;;;;;;;4.83;3.73;;;;;;;22.63;100.00;97921.19;5027423;28;20312;-64
2021/07/22 02:40:50;;;;;;;4.20;3.90;;;;;;;22.26;100.00;97854.22;5026569;28;20332;-64
2021/07/22 02:43:17;;;;;;;4.30;3.90;;;;;;;22.63;100.00;97920.31;5026009;28;20228;-64
2021/07/22 02:45:44;;;;;;;4.50;4.10;;;;;;;21.51;100.00;97734.03;5027042;28;20233;-64
2021/07/22 02:48:11;;;;;;;4.50;4.10;;;;;;;22.61;100.00;97911.69;5027238;28;20205;-64
2021/07/22 02:50:37;;;;;;;4.50;4.10;;;;;;;22.59;100.00;97915.91;5025232;28;20249;-64
2021/07/22 02:53:04;;;;;;;4.40;4.00;;;;;;;22.58;100.00;97922.72;5026031;28;20284;-65
2021/07/22 02:55:31;;;;;;;4.40;4.00;;;;;;;22.49;100.00;97904.47;5027314;28;20201;-64
2021/07/22 02:58:03;;;;;;;5.57;4.23;;;;;;;22.57;100.00;97918.44;5025230;28;20201;-64
2021/07/22 03:00:29;;;;;;;4.30;3.90;;;;;;;22.56;100.00;97921.78;5026230;28;20236;-64
2021/07/22 03:03:00;;;;;;;4.07;3.77;;;;;;;22.56;100.00;97926.06;5026727;28;20261;-64
2021/07/22 03:05:30;;;;;;;5.10;4.37;;;;;;;21.53;100.00;97745.19;5026684;28;20213;-64
2021/07/22 03:08:02;;;;;;;4.20;3.80;;;;;;;22.57;100.00;97925.25;5026509;28;20296;-64
2021/07/22 03:10:29;;;;;;;4.30;3.90;;;;;;;22.58;100.00;97919.28;5024758;28;20233;-62
2021/07/22 03:12:55;;;;;;;4.80;4.40;;;;;;;22.59;100.00;97926.16;5025885;28;20233;-64
2021/07/22 03:15:22;;;;;;;4.03;3.70;;;;;;;22.60;100.00;97933.03;5026838;28;20560;-65
2021/07/22 03:17:48;;;;;;;4.10;3.80;;;;;;;22.60;100.00;97920.22;5026370;28;20712;-65
2021/07/22 03:20:15;;;;;;;4.23;3.83;;;;;;;22.55;100.00;97909.81;5024895;28;20454;-64
2021/07/22 03:22:42;;;;;;;4.60;4.20;;;;;;;22.49;100.00;97913.84;5026375;28;20310;-63
2021/07/22 03:25:09;;;;;;;4.30;3.90;;;;;;;22.50;100.00;97908.78;5026785;28;20201;-65
2021/07/22 03:27:35;;;;;;;4.23;3.73;;;;;;;22.62;100.00;97928.81;5026870;28;20233;-65
2021/07/22 03:30:02;;;;;;;3.93;3.63;;;;;;;22.64;100.00;97927.16;5025254;28;20292;-64
2021/07/22 03:32:29;;;;;;;4.60;4.20;;;;;;;22.64;100.00;97934.84;5026327;28;20251;-64
2021/07/22 03:34:55;;;;;;;4.77;4.37;;;;;;;21.75;100.00;97782.56;5025223;28;20687;-65
2021/07/22 03:37:22;;;;;;;4.47;4.10;;;;;;;22.65;100.00;97934.03;5025173;28;20198;-64
2021/07/22 03:39:48;;;;;;;4.63;4.10;;;;;;;22.66;100.00;97928.09;5026714;28;20233;-65
2021/07/22 03:42:15;;;;;;;4.37;3.97;;;;;;;22.30;100.00;97865.44;5024797;28;20753;-65
2021/07/22 03:44:42;;;;;;;4.63;4.23;;;;;;;22.52;100.00;97907.16;5027005;28;20527;-64
2021/07/22 03:47:08;;;;;;;4.77;4.27;;;;;;;22.54;100.00;97915.78;5026402;28;20248;-64
2021/07/22 03:49:35;;;;;;;4.73;4.20;;;;;;;22.69;100.00;97930.75;5026069;28;20838;-64
2021/07/22 03:52:02;;;;;;;4.60;4.20;;;;;;;22.24;100.00;97860.13;5025694;28;20249;-64
2021/07/22 03:54:30;;;;;;;4.63;4.23;;;;;;;21.70;100.00;97767.91;5026588;28;20293;-64
2021/07/22 03:56:57;;;;;;;4.23;3.93;;;;;;;22.71;100.00;97941.91;5026201;28;20293;-65
2021/07/22 03:59:23;;;;;;;3.90;3.60;;;;;;;22.72;100.00;97946.22;5025784;28;20252;-61
2021/07/22 04:01:50;;;;;;;4.77;3.70;;;;;;;22.71;100.00;97945.34;5025528;28;20268;-64
2021/07/22 04:04:16;;;;;;;4.00;3.70;;;;;;;22.71;100.00;97941.91;5029067;28;20237;-65
2021/07/22 04:06:44;;;;;;;4.20;3.90;;;;;;;22.71;100.00;97945.34;5028416;28;20240;-62
2021/07/22 04:09:11;;;;;;;4.53;4.13;;;;;;;22.71;100.00;97942.78;5030042;28;20202;-62
2021/07/22 04:11:38;;;;;;;6.27;5.70;;;;;;;22.72;100.00;97949.66;5028035;28;20610;-63
2021/07/22 04:14:04;;;;;;;6.60;4.50;;;;;;;22.66;100.00;97933.22;5027226;28;20233;-63
2021/07/22 04:16:31;;;;;;;5.30;4.80;;;;;;;22.73;100.00;97947.94;5023567;28;20289;-63
2021/07/22 04:18:57;;;;;;;5.33;4.37;;;;;;;22.73;100.00;97948.81;5028180;28;20202;-64
2021/07/22 04:21:24;;;;;;;4.70;4.30;;;;;;;22.73;100.00;97942.81;5029555;28;20316;-62
2021/07/22 04:23:51;;;;;;;4.40;4.00;;;;;;;22.74;100.00;97949.72;5029947;28;20260;-64
2021/07/22 04:26:17;;;;;;;6.33;4.87;;;;;;;22.75;100.00;97951.44;5027724;28;20252;-65
2021/07/22 04:28:44;;;;;;;4.80;4.40;;;;;;;22.74;100.00;97945.44;5028875;28;21051;-64
2021/07/22 04:31:16;;;;;;;4.00;3.70;;;;;;;22.76;100.00;97948.03;5030243;28;20311;-64
2021/07/22 04:33:43;;;;;;;4.90;4.30;;;;;;;22.75;100.00;97951.44;5027203;28;20210;-64
2021/07/22 04:36:10;;;;;;;4.50;4.10;;;;;;;22.76;100.00;97955.72;5028583;28;20603;-64
2021/07/22 04:38:37;;;;;;;5.00;4.60;;;;;;;22.76;100.00;97954.03;5028630;28;20644;-64
2021/07/22 04:41:04;;;;;;;5.27;4.77;;;;;;;22.77;100.00;97952.38;5029918;28;20324;-65
2021/07/22 04:43:31;;;;;;;4.60;4.20;;;;;;;22.77;100.00;97955.78;5026742;28;20225;-64
2021/07/22 04:46:04;;;;;;;4.90;4.50;;;;;;;22.76;100.00;97961.72;5028931;28;20233;-64
2021/07/22 04:48:31;;;;;;;6.83;4.13;;;;;;;22.75;100.00;97954.00;5027857;28;20206;-64
2021/07/22 04:51:02;;;;;;;4.87;4.10;;;;;;;22.73;100.00;97951.38;5029350;28;20680;-65
2021/07/22 04:53:29;;;;;;;5.23;4.33;;;;;;;22.72;100.00;97954.78;5029083;28;20225;-64
2021/07/22 04:55:55;;;;;;;4.80;4.40;;;;;;;22.71;100.00;97960.72;5028934;28;20728;-64
2021/07/22 04:58:22;;;;;;;4.50;4.10;;;;;;;22.71;100.00;97957.28;5029099;28;20233;-64
2021/07/22 05:00:49;;;;;;;4.90;4.40;;;;;;;22.68;100.00;97945.22;5027324;28;20225;-64
2021/07/22 05:03:16;;;;;;;4.90;4.50;;;;;;;22.67;100.00;97948.63;5028627;28;20244;-64
2021/07/22 05:05:43;;;;;;;4.87;4.37;;;;;;;22.67;100.00;97947.75;5028893;28;20217;-64
2021/07/22 05:08:09;;;;;;;5.17;4.27;;;;;;;22.67;100.00;97951.19;5028739;28;20233;-64
2021/07/22 05:10:36;;;;;;;4.57;4.17;;;;;;;22.65;100.00;97950.25;5028072;28;20230;-64
2021/07/22 05:13:03;;;;;;;6.10;4.53;;;;;;;22.65;100.00;97951.97;5028554;28;20237;-64
2021/07/22 05:15:30;;;;;;;5.77;4.27;;;;;;;22.64;100.00;97952.78;5028458;28;20229;-64
2021/07/22 05:17:57;;;;;;;4.90;4.50;;;;;;;22.64;100.00;97958.78;5029467;28;20241;-63
2021/07/22 05:20:23;;;;;;;5.87;4.40;;;;;;;22.63;100.00;97962.19;5026138;28;20237;-64
2021/07/22 05:22:50;;;;;;;5.60;5.10;;;;;;;22.63;100.00;97961.28;5028764;28;20264;-64
2021/07/22 05:25:19;;;;;;;7.27;5.63;;;;;;;22.61;100.00;97963.81;5028735;28;20280;-63
2021/07/22 05:27:45;;;;;;;8.90;5.60;;;;;;;22.61;100.00;97961.25;5028105;28;20661;-65
2021/07/22 05:30:12;;;;;;;6.93;5.40;;;;;;;22.61;100.00;97960.38;5028497;28;20244;-64
2021/07/22 05:32:42;;;;;;;6.47;5.87;;;;;;;22.61;100.00;97968.94;5028190;28;20225;-64
2021/07/22 05:35:11;;;;;;;6.20;5.60;;;;;;;22.61;100.00;97962.94;5028146;28;20244;-63
2021/07/22 05:37:37;;;;;;;8.27;5.60;;;;;;;22.61;100.00;97961.25;5026492;28;20232;-63
2021/07/22 05:40:04;;;;;;;5.80;5.30;;;;;;;22.55;100.00;97958.50;5009975;28;20285;-64
2021/07/22 05:42:31;;;;;;;5.60;5.10;;;;;;;22.23;100.00;97896.78;5010379;28;20288;-64
2021/07/22 05:44:57;;;;;;;6.17;5.57;;;;;;;22.55;100.00;97952.50;5008557;28;20280;-65
2021/07/22 05:47:24;;;;;;;5.70;5.10;;;;;;;22.60;100.00;97963.75;5010727;28;20234;-64
2021/07/22 05:49:51;;;;;;;5.60;5.10;;;;;;;22.59;100.00;97960.31;5027525;28;20216;-64
2021/07/22 05:52:17;;;;;;;6.00;5.40;;;;;;;22.59;100.00;97956.91;5028050;28;20314;-64
2021/07/22 05:54:45;;;;;;;5.47;4.97;;;;;;;22.58;100.00;97966.28;5027815;28;20209;-63
2021/07/22 05:57:11;;;;;;;5.97;5.30;;;;;;;22.59;100.00;97972.28;5027849;28;20210;-64
2021/07/22 05:59:38;;;;;;;6.17;5.50;;;;;;;22.59;100.00;97969.72;5027740;28;20639;-64
2021/07/22 06:02:05;;;;;;;6.40;5.53;;;;;;;22.58;100.00;97966.28;5027885;28;20719;-65
2021/07/22 06:04:32;;;;;;;6.23;5.63;;;;;;;22.58;100.00;97963.72;5027913;28;20200;-65
2021/07/22 06:06:58;;;;;;;6.77;5.90;;;;;;;22.58;100.00;97970.50;5027500;28;20230;-65
2021/07/22 06:09:25;;;;;;;6.20;5.60;;;;;;;22.57;100.00;97967.09;5027102;28;20675;-65
2021/07/22 06:11:52;;;;;;;10.10;6.50;;;;;;;22.57;100.00;97969.66;5027796;28;20221;-65
2021/07/22 06:14:18;;;;;;;6.50;5.90;;;;;;;22.57;100.00;97962.00;5027691;28;20205;-64
2021/07/22 06:16:45;;;;;;;6.73;6.07;;;;;;;22.56;100.00;97960.22;5027961;28;20235;-65
2021/07/22 06:19:12;;;;;;;6.07;5.47;;;;;;;22.56;100.00;97959.38;5027560;28;20201;-65
2021/07/22 06:21:38;;;;;;;9.20;6.37;;;;;;;22.55;100.00;97961.06;5026473;28;20257;-65
2021/07/22 06:24:05;;;;;;;8.90;6.50;;;;;;;22.56;100.00;97961.94;5027599;28;20305;-64
2021/07/22 06:26:34;;;;;;;12.00;6.67;;;;;;;22.55;100.00;97961.06;5026862;28;20201;-64
2021/07/22 06:29:02;;;;;;;7.50;6.77;;;;;;;22.56;100.00;97959.38;5027078;28;20212;-65
2021/07/22 06:31:28;;;;;;;8.07;6.90;;;;;;;22.55;100.00;97963.63;5026924;28;20267;-65
2021/07/22 06:33:57;;;;;;;9.63;7.07;;;;;;;22.55;100.00;97961.06;5027070;28;20381;-64
2021/07/22 06:36:24;;;;;;;11.77;6.77;;;;;;;22.54;100.00;97964.44;5027083;28;20236;-65
2021/07/22 06:38:51;;;;;;;8.93;6.83;;;;;;;22.55;100.00;97963.63;5026572;28;20237;-65
2021/07/22 06:41:21;;;;;;;8.30;6.90;;;;;;;22.55;100.00;97967.84;5128241;22;20317;-70
2021/07/22 06:43:48;;;;;;;8.17;6.37;;;;;;;22.47;100.00;97946.25;5004145;28;20225;-69
2021/07/22 06:46:15;;;;;;;7.27;6.53;;;;;;;22.55;100.00;97957.63;4997813;28;20282;-69
2021/07/22 06:48:42;;;;;;;7.30;6.60;;;;;;;22.29;100.00;97915.75;5004930;28;20688;-69
2021/07/22 06:51:08;;;;;;;9.60;6.43;;;;;;;22.49;100.00;97952.25;4972582;28;20234;-69
2021/07/22 06:53:35;;;;;;;6.77;6.07;;;;;;;22.52;100.00;97958.41;5004079;28;20206;-69
2021/07/22 06:56:02;;;;;;;7.20;6.50;;;;;;;22.52;100.00;97952.38;5005194;28;20241;-68
2021/07/22 06:58:29;;;;;;;8.33;6.23;;;;;;;22.52;100.00;97955.84;5005889;28;20621;-69
2021/07/22 07:00:55;;;;;;;6.57;5.87;;;;;;;22.52;100.00;97960.06;5003555;28;20242;-67
2021/07/22 07:03:22;;;;;;;7.60;6.80;;;;;;;22.44;100.00;97943.56;5005307;28;20225;-68
2021/07/22 07:05:50;;;;;;;6.83;6.13;;;;;;;22.44;100.00;97947.00;5004672;28;20669;-70
2021/07/22 07:08:17;;;;;;;7.20;6.50;;;;;;;22.53;100.00;97969.53;5004489;28;20202;-67
2021/07/22 07:10:43;;;;;;;7.30;6.60;;;;;;;22.15;100.00;97890.53;5005408;28;20287;-68
2021/07/22 07:13:12;;;;;;;6.47;5.87;;;;;;;22.40;100.00;97942.59;4994273;28;20225;-69
2021/07/22 07:15:38;;;;;;;6.43;5.83;;;;;;;22.46;100.00;97945.34;4988310;28;20234;-70
2021/07/22 07:18:05;;;;;;;6.03;5.43;;;;;;;22.52;100.00;97957.50;5005802;28;20234;-68
2021/07/22 07:20:32;;;;;;;6.63;6.03;;;;;;;22.44;100.00;97943.56;5005015;28;20293;-71
2021/07/22 07:22:58;;;;;;;9.30;6.10;;;;;;;22.51;100.00;97954.09;5004220;28;20249;-66
2021/07/22 07:25:25;;;;;;;7.33;6.07;;;;;;;22.45;100.00;97943.63;5004899;28;20289;-68
2021/07/22 07:27:51;;;;;;;6.80;6.10;;;;;;;22.52;100.00;97957.50;5004556;28;20297;-69
2021/07/22 07:30:19;;;;;;;6.47;5.87;;;;;;;22.19;100.00;97900.06;5005657;28;20240;-66
2021/07/22 07:32:47;;;;;;;6.87;6.17;;;;;;;22.18;100.00;97900.88;5004212;28;20229;-70
2021/07/22 07:35:14;;;;;;;6.00;5.50;;;;;;;22.51;100.00;97953.22;4985828;28;20226;-69
2021/07/22 07:37:41;;;;;;;7.20;6.50;;;;;;;22.23;100.00;97907.88;5006384;28;20598;-71
2021/07/22 07:40:08;;;;;;;6.33;5.73;;;;;;;22.50;100.00;97947.22;5007981;28;20206;-69
2021/07/22 07:42:36;;;;;;;6.70;5.70;;;;;;;22.49;100.00;97950.56;5007677;28;20249;-68
2021/07/22 07:45:04;;;;;;;7.00;6.00;;;;;;;22.49;100.00;97944.56;5008021;28;20198;-68
2021/07/22 07:47:31;;;;;;;6.40;5.80;;;;;;;22.44;100.00;97943.56;5010223;28;20202;-69
2021/07/22 07:49:58;;;;;;;6.47;5.87;;;;;;;22.40;100.00;97936.59;4991655;28;20256;-70
2021/07/22 07:52:27;;;;;;;7.03;5.80;;;;;;;22.47;100.00;97959.03;5008559;28;20249;-68
2021/07/22 07:54:54;;;;;;;6.93;6.23;;;;;;;22.46;100.00;97958.16;5009735;28;20296;-69
2021/07/22 07:57:21;;;;;;;7.87;5.93;;;;;;;22.46;100.00;97950.47;5008732;28;20233;-70
2021/07/22 07:59:47;;;;;;;6.20;5.53;;;;;;;22.33;100.00;97932.09;5008645;28;20264;-68
2021/07/22 08:02:15;;;;;;;6.67;6.07;;;;;;;22.42;100.00;97940.09;4979325;28;20665;-71
2021/07/22 08:04:42;;;;;;;6.20;5.60;;;;;;;22.40;100.00;97939.16;5008387;28;20237;-68
2021/07/22 08:07:09;;;;;;;7.10;5.87;;;;;;;22.17;100.00;97901.72;5008559;28;20225;-72
2021/07/22 08:09:36;;;;;;;7.23;6.33;;;;;;;22.18;100.00;97895.75;5008697;28;20241;-70
2021/07/22 08:12:03;;;;;;;6.43;5.70;;;;;;;22.44;100.00;97947.00;5007715;28;20226;-69
2021/07/22 08:14:36;;;;;;;6.20;5.60;;;;;;;22.45;100.00;97953.88;5008535;28;20229;-69
2021/07/22 08:17:06;;;;;;;6.57;5.97;;;;;;;22.34;100.00;97934.72;5005309;28;20194;-69
2021/07/22 08:19:33;;;;;;;6.10;5.50;;;;;;;22.44;100.00;97952.09;5007820;28;20210;-69
2021/07/22 08:22:00;;;;;;;6.10;5.50;;;;;;;22.44;100.00;97948.69;5003024;28;20225;-69
2021/07/22 08:24:27;;;;;;;6.63;6.03;;;;;;;22.43;100.00;97944.38;5008954;28;20258;-69
2021/07/22 08:26:53;;;;;;;6.00;5.30;;;;;;;22.43;100.00;97944.38;5008343;28;20245;-65
2021/07/22 08:29:20;;;;;;;6.40;5.80;;;;;;;22.43;100.00;97950.38;5007180;28;20579;-71
2021/07/22 08:31:46;;;;;;;6.40;5.80;;;;;;;22.43;100.00;97949.50;5006445;28;20928;-68
2021/07/22 08:34:15;;;;;;;5.53;5.00;;;;;;;22.38;100.00;97939.09;5008484;28;20244;-70
2021/07/22 08:36:42;;;;;;;6.40;5.60;;;;;;;22.34;100.00;97932.16;5006669;28;20577;-68
2021/07/22 08:39:09;;;;;;;6.13;5.57;;;;;;;22.43;100.00;97949.50;4988331;28;20338;-70
2021/07/22 08:41:36;;;;;;;6.10;5.23;;;;;;;22.18;100.00;97904.31;5006587;28;20234;-69
2021/07/22 08:44:03;;;;;;;6.00;5.47;;;;;;;22.43;100.00;97954.63;4991107;28;20226;-70
2021/07/22 08:46:30;;;;;;;6.03;5.53;;;;;;;22.43;100.00;97937.56;4990031;28;20633;-68
2021/07/22 08:48:57;;;;;;;6.20;5.60;;;;;;;22.38;100.00;97935.69;4990549;28;20293;-71
2021/07/22 08:51:25;;;;;;;6.37;5.73;;;;;;;22.38;100.00;97931.41;4972468;28;20296;-70
2021/07/22 08:53:52;;;;;;;6.00;5.50;;;;;;;21.83;100.00;97832.31;5007101;28;20333;-71
2021/07/22 08:56:19;;;;;;;6.50;5.90;;;;;;;22.43;100.00;97936.69;4988609;28;20203;-66
2021/07/22 08:58:45;;;;;;;6.17;5.60;;;;;;;22.16;100.00;97892.28;4988975;28;20677;-72
2021/07/22 09:01:12;;;;;;;5.83;5.33;;;;;;;22.42;100.00;97938.41;4988430;28;20206;-70
2021/07/22 09:03:39;;;;;;;6.00;5.37;;;;;;;22.34;100.00;97924.47;4966273;28;20253;-68
2021/07/22 09:06:24;;;;;;;5.97;5.37;;;;;;;22.42;100.00;97938.41;5007265;28;20205;-69
2021/07/22 09:08:51;;;;;;;6.00;5.40;;;;;;;22.15;100.00;97883.75;5008318;28;20260;-69
2021/07/22 09:11:18;;;;;;;7.00;6.27;;;;;;;22.16;100.00;97885.47;5007132;28;20313;-70
2021/07/22 09:13:49;;;;;;;6.97;5.27;;;;;;;22.45;100.00;97935.06;5006031;28;20234;-70
2021/07/22 09:16:33;;;;;;;8.20;5.73;;;;;;;22.45;100.00;97930.81;5008705;28;20210;-69
2021/07/22 09:19:00;;;;;;;8.27;5.73;;;;;;;21.35;100.00;97729.22;5001137;28;20199;-67
2021/07/22 09:21:27;;;;;;;6.97;6.23;;;;;;;22.47;100.00;97926.59;5003545;28;20301;-69
2021/07/22 09:24:10;;;;;;;7.30;6.60;;;;;;;22.33;100.00;97897.13;5007033;28;20335;-70
2021/07/22 09:26:38;;;;;;;7.20;6.00;;;;;;;22.48;100.00;97928.34;4990649;28;20290;-71
2021/07/22 09:29:05;;;;;;;7.43;5.97;;;;;;;22.41;100.00;97910.19;5007614;28;20691;-69
2021/07/22 09:31:32;;;;;;;8.00;5.83;;;;;;;22.50;100.00;97920.72;4989405;28;20754;-70
2021/07/22 09:33:59;;;;;;;6.87;5.97;;;;;;;22.50;100.00;97915.59;5005312;28;20222;-68
2021/07/22 09:36:31;;;;;;;8.00;6.27;;;;;;;22.38;100.00;97905.81;5005864;28;20676;-68
2021/07/22 09:39:17;;;;;;;6.07;5.57;;;;;;;21.98;100.00;97827.69;5007482;28;20206;-67
2021/07/22 09:41:43;;;;;;;7.97;5.67;;;;;;;22.53;100.00;97920.84;5007805;28;20634;-69
2021/07/22 09:44:27;;;;;;;6.83;6.07;;;;;;;22.52;100.00;97909.72;5008118;28;20573;-69
2021/07/22 09:46:54;;;;;;;6.70;6.00;;;;;;;22.47;100.00;97898.41;4973711;28;20293;-69
2021/07/22 09:49:21;;;;;;;6.47;5.57;;;;;;;22.50;100.00;97907.91;5007878;28;20690;-71
2021/07/22 09:51:47;;;;;;;6.03;5.50;;;;;;;22.50;100.00;97902.78;4990372;28;20226;-71
2021/07/22 09:54:14;;;;;;;6.67;5.80;;;;;;;22.04;100.00;97820.22;5008806;28;20194;-70
2021/07/22 09:56:41;;;;;;;8.67;6.00;;;;;;;22.55;100.00;97906.38;5008813;28;20885;-70
2021/07/22 09:59:10;;;;;;;6.57;5.80;;;;;;;22.50;100.00;97896.00;5006793;28;20249;-70
2021/07/22 10:01:47;;;;;;;7.43;6.63;;;;;;;22.57;100.00;97891.94;5004086;28;20272;-71
2021/07/22 10:04:15;;;;;;;6.87;6.17;;;;;;;22.56;100.00;97898.75;5005780;28;20245;-67
2021/07/22 10:06:43;;;;;;;9.17;6.33;;;;;;;22.43;100.00;97872.66;4984425;28;20781;-68
2021/07/22 10:09:10;;;;;;;7.00;6.37;;;;;;;22.58;100.00;97893.66;4987702;28;20257;-72
2021/07/22 10:11:37;;;;;;;8.97;6.50;;;;;;;22.54;100.00;97885.03;5006460;28;20869;-68
2021/07/22 10:14:03;;;;;;;11.90;6.43;;;;;;;22.48;100.00;97869.44;4990571;28;20361;-70
2021/07/22 10:16:30;;;;;;;8.23;6.63;;;;;;;22.60;100.00;97882.66;5000630;28;20253;-68
2021/07/22 10:18:58;;;;;;;6.17;5.67;;;;;;;22.54;100.00;97869.66;5007542;28;20292;-72
2021/07/22 10:21:25;;;;;;;10.30;6.80;;;;;;;22.53;100.00;97872.19;4990827;28;20305;-70
2021/07/22 10:23:51;;;;;;;7.27;6.33;;;;;;;22.37;100.00;97837.50;4991161;28;20222;-70
2021/07/22 10:26:18;;;;;;;12.50;8.07;;;;;;;22.66;100.00;97887.09;4981123;28;20210;-65
2021/07/22 10:28:44;;;;;;;13.40;9.60;;;;;;;22.65;100.00;97875.13;4990727;28;20602;-69
2021/07/22 10:31:11;;;;;;;9.67;8.20;;;;;;;22.32;100.00;97818.56;5008743;28;20234;-73
2021/07/22 10:33:38;;;;;;;17.60;11.70;;;;;;;22.66;100.00;97869.16;4978340;28;20202;-68
2021/07/22 10:36:06;;;;;;;12.90;10.37;;;;;;;22.71;100.00;97870.19;5006638;28;20241;-69
2021/07/22 10:38:46;;;;;;;10.77;9.67;;;;;;;22.35;100.00;97802.44;4973491;28;20786;-70
2021/07/22 10:41:39;;;;;;;13.17;10.17;;;;;;;22.65;100.00;97854.63;5003563;28;20202;-68
2021/07/22 10:44:19;;;;;;;12.90;10.93;;;;;;;22.77;100.00;97870.38;5003152;28;20729;-70
2021/07/22 10:46:58;;;;;;;12.40;10.50;;;;;;;22.77;100.00;97862.69;5005632;28;20233;-68
2021/07/22 10:49:41;;;;;;;13.70;11.10;;;;;;;22.65;100.00;97846.94;5005759;28;20237;-70
2021/07/22 10:52:09;;;;;;;14.23;10.57;;;;;;;22.39;100.00;97796.56;5006105;28;20245;-66
2021/07/22 10:54:51;;;;;;;14.27;12.33;;;;;;;22.72;100.00;97841.16;4988890;28;20210;-71
2021/07/22 10:57:33;;;;;;;14.10;11.03;;;;;;;22.84;98.59;97859.47;4985080;28;20207;-70
2021/07/22 10:59:59;;;;;;;13.13;11.40;;;;;;;22.75;96.82;97831.00;5005976;28;20238;-72
2021/07/22 11:02:46;;;;;;;18.63;11.57;;;;;;;22.12;95.35;97727.50;5004627;28;20246;-69
2021/07/22 11:05:23;;;;;;;16.70;10.70;;;;;;;22.93;95.32;97858.03;5004017;28;20304;-69
2021/07/22 11:08:19;;;;;;;14.00;11.83;;;;;;;22.96;92.97;97860.69;5006816;28;20722;-73
2021/07/22 11:11:07;;;;;;;12.93;11.47;;;;;;;22.98;93.50;97858.19;5001155;28;20210;-70
2021/07/22 11:13:37;;;;;;;12.73;11.43;;;;;;;23.00;95.43;97851.38;5004554;28;20199;-74
2021/07/22 11:16:06;;;;;;;14.70;12.13;;;;;;;23.00;96.41;97854.81;5005374;28;20206;-72
2021/07/22 11:18:44;;;;;;;17.90;12.27;;;;;;;23.00;97.30;97851.38;5003766;28;20280;-72
2021/07/22 11:21:12;;;;;;;13.47;11.43;;;;;;;23.00;97.59;97859.94;5004896;28;20202;-72
2021/07/22 11:23:41;;;;;;;15.37;12.00;;;;;;;22.98;98.54;97848.78;5005201;28;20256;-67
2021/07/22 11:26:08;;;;;;;13.30;11.60;;;;;;;22.99;99.34;97839.41;5000857;28;20928;-68
2021/07/22 11:28:35;;;;;;;15.53;11.90;;;;;;;22.86;99.43;97821.94;5003875;28;20202;-68
2021/07/22 11:31:11;;;;;;;13.27;11.97;;;;;;;22.64;99.87;97779.44;5002802;28;20289;-69